Svitzer Maitland — VHDK — position and weather

sailwx.info

Track history (hours):
 
Tides and Currents Weather Stations Pressure Air Temp Water Temp Dewpoint Dewpoint Depression Visibility Wind Speed Wind Dir Waves Ship Positions

Svitzer Maitland

Last reported at 2017-Nov-24 09:14 UTC. Time now 2017-Nov-24 12:51 UTC.
Position S 32°55' E 151°46'.

Length 30 m; draft 4.5 m.

Type: Tug. MMSI: 503624000.

Date/timePositionNaut miles runAvg speedWind from/ knotsBaromVisibWave heightAir tempDewpointWater temp
2017-Nov-24 09:14S 32°55' E 151°46'0 0.0
2017-Nov-24 08:51S 32°55' E 151°46'2 1.3
2017-Nov-24 07:36S 32°54' E 151°46'2 4.0
2017-Nov-24 07:09S 32°55' E 151°48'1 3.4
2017-Nov-24 06:57S 32°55' E 151°48'2 3.4
2017-Nov-24 06:26S 32°55' E 151°46'0 0.0
2017-Nov-24 05:58S 32°55' E 151°46'1 2.1
2017-Nov-24 05:30S 32°55' E 151°48'1 2.2
2017-Nov-24 05:00S 32°55' E 151°46'2 3.0
2017-Nov-24 04:30S 32°53' E 151°46'0 0.6
2017-Nov-24 03:59S 32°53' E 151°46'0 0.2
2017-Nov-24 02:43S 32°54' E 151°46'1 4.3
2017-Nov-24 02:29S 32°55' E 151°46'1 2.5
2017-Nov-24 02:00S 32°55' E 151°48'1 1.7
2017-Nov-24 01:24S 32°55' E 151°46'2 1.2
2017-Nov-23 23:51S 32°53' E 151°46'3 3.4
2017-Nov-23 23:07S 32°55' E 151°47'0 0.5
2017-Nov-23 22:50S 32°55' E 151°47'1 0.1
2017-Nov-23 17:06S 32°55' E 151°46'1 5.2
2017-Nov-23 16:55S 32°54' E 151°46'1 1.5
2017-Nov-23 16:08S 32°53' E 151°46'0 2.3
2017-Nov-23 15:59S 32°53' E 151°46'2 3.2
2017-Nov-23 15:30S 32°55' E 151°46'2 3.4
2017-Nov-23 14:59S 32°54' E 151°48'0 0.2
2017-Nov-23 14:30S 32°54' E 151°48'2 2.4
2017-Nov-23 13:47S 32°54' E 151°46'1 2.0
2017-Nov-23 13:23S 32°53' E 151°46'0 0.0
2017-Nov-23 12:58S 32°53' E 151°46'2 2.7
2017-Nov-23 12:13S 32°55' E 151°47'2 1.4
2017-Nov-23 10:33S 32°53' E 151°46'2 8.3
2017-Nov-23 10:22S 32°55' E 151°46'0 0.1
2017-Nov-23 06:18S 32°55' E 151°46'0 0.0
2017-Nov-23 05:59S 32°55' E 151°46'2 1.5
2017-Nov-23 04:35S 32°53' E 151°46'1 3.1
2017-Nov-23 04:12S 32°54' E 151°46'1 4.8
2017-Nov-23 04:00S 32°55' E 151°47'1 2.1
2017-Nov-23 03:26S 32°55' E 151°48'1 3.5
2017-Nov-23 03:00S 32°55' E 151°46'0 0.1
2017-Nov-23 02:30S 32°55' E 151°46'0 0.0
2017-Nov-23 01:53S 32°55' E 151°46'0 0.0
2017-Nov-23 01:27S 32°55' E 151°46'0 0.0
2017-Nov-23 01:00S 32°55' E 151°46'0 0.0
2017-Nov-23 00:29S 32°55' E 151°46'0 0.0
2017-Nov-23 00:00S 32°55' E 151°46'0 0.0
2017-Nov-22 23:30S 32°55' E 151°46'0 0.0
2017-Nov-22 23:00S 32°55' E 151°46'0 0.0
2017-Nov-22 22:29S 32°55' E 151°46'0 0.0
2017-Nov-22 22:00S 32°55' E 151°46'0 0.0
2017-Nov-22 21:29S 32°55' E 151°46'0 0.0
2017-Nov-22 21:00S 32°55' E 151°46'0 0.0
2017-Nov-22 20:30S 32°55' E 151°46'0 0.0
2017-Nov-22 20:00S 32°55' E 151°46'0 0.0
2017-Nov-22 19:30S 32°55' E 151°46'  
2017-Nov-20 00:27S 32°55' E 151°47'0 0.2
2017-Nov-19 22:55S 32°55' E 151°46'0 0.8
2017-Nov-19 22:23S 32°55' E 151°46'2 1.3
2017-Nov-19 21:14S 32°53' E 151°46'2 8.9
2017-Nov-19 21:01S 32°55' E 151°47'0 0.0
2017-Nov-19 14:52S 32°55' E 151°46'2 3.9
2017-Nov-19 14:23S 32°53' E 151°46'1 3.4
2017-Nov-19 14:00S 32°55' E 151°46'1 1.5
2017-Nov-19 13:19S 32°55' E 151°47'0 0.4
2017-Nov-19 13:00S 32°55' E 151°47'1 2.0
2017-Nov-19 12:28S 32°55' E 151°46'1 2.5
2017-Nov-19 12:00S 32°53' E 151°46'0 0.2
2017-Nov-19 11:29S 32°53' E 151°46'1 1.2
2017-Nov-19 10:57S 32°54' E 151°46'0 0.5
2017-Nov-19 10:11S 32°54' E 151°46'1 0.7
2017-Nov-19 08:42S 32°53' E 151°46'2 6.3
2017-Nov-19 08:22S 32°55' E 151°47'1 1.5
2017-Nov-19 07:57S 32°55' E 151°46'1 1.5
2017-Nov-19 07:03S 32°54' E 151°46'2 8.3
2017-Nov-19 06:52S 32°55' E 151°47'0 0.2
2017-Nov-19 05:42S 32°55' E 151°46'0 0.0
2017-Nov-19 01:08S 32°55' E 151°46'0 0.0
2017-Nov-19 00:11S 32°55' E 151°46'2 1.8
2017-Nov-18 23:16S 32°54' E 151°46'2 3.4
2017-Nov-18 22:48S 32°55' E 151°47'2 6.5
2017-Nov-18 22:30S 32°55' E 151°49'2 2.7
2017-Nov-18 21:55S 32°55' E 151°47'2 2.7
2017-Nov-18 21:03S 32°53' E 151°46'0 0.9
2017-Nov-18 20:41S 32°54' E 151°46'2 9.3
2017-Nov-18 20:30S 32°55' E 151°47'0 0.4
2017-Nov-18 19:58S 32°55' E 151°46'0 0.0
2017-Nov-18 19:30S 32°55' E 151°46'0 0.0
2017-Nov-18 12:11S 32°55' E 151°46'1 5.3
2017-Nov-18 12:00S 32°54' E 151°46'1 1.6
2017-Nov-18 11:22S 32°53' E 151°46'1 2.1
2017-Nov-18 11:00S 32°54' E 151°46'1 2.9
2017-Nov-18 10:30S 32°55' E 151°48'0 0.2
2017-Nov-18 09:58S 32°55' E 151°48'3 1.6
2017-Nov-18 08:23S 32°53' E 151°46'2 5.6
2017-Nov-18 07:58S 32°55' E 151°46'0 0.0
2017-Nov-18 02:17S 32°55' E 151°46'2 1.4
2017-Nov-18 00:58S 32°53' E 151°46'2 4.2
2017-Nov-18 00:30S 32°55' E 151°47'2 3.0
2017-Nov-17 23:58S 32°54' E 151°48'1 1.6
2017-Nov-17 23:29S 32°55' E 151°48'2 1.7
2017-Nov-17 22:06S 32°53' E 151°46'0 0.1
2017-Nov-17 20:39S 32°54' E 151°46'0 1.4
2017-Nov-17 20:21S 32°53' E 151°46'0 0.4
2017-Nov-17 20:00S 32°54' E 151°46'2 3.8
2017-Nov-17 19:30S 32°55' E 151°47'0 0.0
2017-Nov-17 11:12S 32°55' E 151°47'1 6.1
2017-Nov-17 11:00S 32°54' E 151°46'0 0.3
2017-Nov-17 10:30S 32°54' E 151°46'1 1.4
2017-Nov-17 09:52S 32°55' E 151°47'2 0.7
2017-Nov-17 07:42S 32°54' E 151°46'2 3.4
2017-Nov-17 07:14S 32°55' E 151°47'2 6.2
2017-Nov-17 07:00S 32°55' E 151°48'2 1.2
2017-Nov-17 05:33S 32°55' E 151°46'1 0.5
2017-Nov-17 04:13S 32°55' E 151°46'1 5.0
2017-Nov-17 04:00S 32°55' E 151°48'1 0.8
2017-Nov-17 02:39S 32°55' E 151°46'2 2.2
2017-Nov-17 01:45S 32°53' E 151°46'2 3.0
2017-Nov-17 01:12S 32°55' E 151°47'1 6.1
2017-Nov-17 01:00S 32°55' E 151°48'1 2.9
2017-Nov-17 00:29S 32°55' E 151°46'0 0.1
2017-Nov-17 00:00S 32°55' E 151°46'2 1.6
2017-Nov-16 22:59S 32°54' E 151°46'2 3.7
2017-Nov-16 22:29S 32°55' E 151°47'2 1.0
2017-Nov-16 20:23S 32°53' E 151°46'2 5.7
2017-Nov-16 20:00S 32°55' E 151°48'1 2.6
2017-Nov-16 19:30S 32°54' E 151°46'1 0.8
2017-Nov-16 18:34S 32°54' E 151°46'2 0.3
2017-Nov-16 13:41S 32°55' E 151°46'1 4.9
2017-Nov-16 13:28S 32°54' E 151°46'1 1.1
2017-Nov-16 12:49S 32°54' E 151°46'2 3.8
2017-Nov-16 12:20S 32°55' E 151°47'1 4.1
2017-Nov-16 12:00S 32°55' E 151°48'2 3.5
2017-Nov-16 11:28S 32°55' E 151°46'0 0.1
2017-Nov-16 09:01S 32°55' E 151°46'0 0.0
2017-Nov-16 08:48S 32°55' E 151°46'0 0.0
2017-Nov-16 08:30S 32°55' E 151°46'0 0.0
2017-Nov-16 07:54S 32°55' E 151°46'0 0.0
2017-Nov-16 05:30S 32°55' E 151°46'0 0.1
2017-Nov-16 03:05S 32°55' E 151°46'2 0.7
2017-Nov-16 00:37S 32°54' E 151°46'0 3.9
2017-Nov-16 00:30S 32°54' E 151°46'2 4.2
2017-Nov-15 23:59S 32°55' E 151°49'0 0.4
2017-Nov-15 23:29S 32°54' E 151°49'2 1.7
2017-Nov-15 22:07S 32°54' E 151°46'0 3.5
2017-Nov-15 22:00S 32°54' E 151°46'2 3.8
2017-Nov-15 21:30S 32°55' E 151°48'0 0.3
2017-Nov-15 20:57S 32°54' E 151°48'2 2.7
2017-Nov-15 20:21S 32°55' E 151°46'1 2.9
2017-Nov-15 19:54S 32°53' E 151°46'0 0.3
2017-Nov-15 19:17S 32°53' E 151°46'2 5.2
2017-Nov-15 18:58S 32°55' E 151°46'0 0.4
2017-Nov-15 17:55S 32°55' E 151°46'1 1.2
2017-Nov-15 17:11S 32°54' E 151°46'1 0.8
2017-Nov-15 16:02S 32°53' E 151°46'2 7.5
2017-Nov-15 15:46S 32°55' E 151°47'0 0.2
2017-Nov-15 13:28S 32°55' E 151°46'1 1.7
2017-Nov-15 12:42S 32°54' E 151°46'1 2.6
2017-Nov-15 12:30S 32°53' E 151°46'2 2.9
2017-Nov-15 11:48S 32°55' E 151°47'0 0.1
2017-Nov-15 04:58S 32°55' E 151°46'2 1.7
2017-Nov-15 03:52S 32°53' E 151°46'2 4.4
2017-Nov-15 03:26S 32°55' E 151°47'2 4.2
2017-Nov-15 02:59S 32°55' E 151°49'2 3.6
2017-Nov-15 02:23S 32°55' E 151°46'0 0.0
2017-Nov-15 01:54S 32°55' E 151°46'0 0.0
2017-Nov-15 01:29S 32°55' E 151°46'0 0.0
2017-Nov-15 01:00S 32°55' E 151°46'0 0.0
2017-Nov-14 22:22S 32°55' E 151°46'1 1.5
2017-Nov-14 21:57S 32°55' E 151°47'2 3.0
2017-Nov-14 21:13S 32°53' E 151°46'0 0.0
2017-Nov-14 20:58S 32°53' E 151°46'0 0.5
2017-Nov-14 20:30S 32°54' E 151°46'0 0.3
2017-Nov-14 19:58S 32°53' E 151°46'2 4.0
2017-Nov-14 19:30S 32°55' E 151°47'2 3.4
2017-Nov-14 18:59S 32°55' E 151°49'2 3.6
2017-Nov-14 18:28S 32°55' E 151°46'0 0.8
2017-Nov-14 17:59S 32°55' E 151°47'2 3.2
2017-Nov-14 17:30S 32°54' E 151°46'1 1.7
2017-Nov-14 17:00S 32°53' E 151°46'0 0.7
2017-Nov-14 16:30S 32°53' E 151°46'0 0.0
2017-Nov-14 16:00S 32°53' E 151°46'0 0.0
2017-Nov-14 15:30S 32°53' E 151°46'0 0.0
2017-Nov-14 15:00S 32°53' E 151°46'0 0.0
2017-Nov-14 14:30S 32°53' E 151°46'0 0.0
2017-Nov-14 14:00S 32°53' E 151°46'0 0.0
2017-Nov-14 13:30S 32°53' E 151°46'1 0.9
2017-Nov-14 12:55S 32°54' E 151°46'2 3.8
2017-Nov-14 12:29S 32°55' E 151°47'0 1.0
2017-Nov-14 12:00S 32°55' E 151°47'0 0.1
2017-Nov-14 09:55S 32°55' E 151°46'  
Track history (hours):
 
Tides and Currents Weather Stations Pressure Air Temp Water Temp Dewpoint Dewpoint Depression Visibility Wind Speed Wind Dir Waves Ship Positions

Svitzer Maitland

Last reported at 2017-Nov-24 09:14 UTC. Time now 2017-Nov-24 12:51 UTC.
Position S 32°55' E 151°46'.

Length 30 m; draft 4.5 m.

Type: Tug. MMSI: 503624000.

Date/timePositionNaut miles runAvg speedWind from/ knotsBaromVisibWave heightAir tempDewpointWater temp
2017-Nov-24 09:14S 32°55' E 151°46'0 0.0
2017-Nov-24 08:51S 32°55' E 151°46'2 1.3
2017-Nov-24 07:36S 32°54' E 151°46'2 4.0
2017-Nov-24 07:09S 32°55' E 151°48'1 3.4
2017-Nov-24 06:57S 32°55' E 151°48'2 3.4
2017-Nov-24 06:26S 32°55' E 151°46'0 0.0
2017-Nov-24 05:58S 32°55' E 151°46'1 2.1
2017-Nov-24 05:30S 32°55' E 151°48'1 2.2
2017-Nov-24 05:00S 32°55' E 151°46'2 3.0
2017-Nov-24 04:30S 32°53' E 151°46'0 0.6
2017-Nov-24 03:59S 32°53' E 151°46'0 0.2
2017-Nov-24 02:43S 32°54' E 151°46'1 4.3
2017-Nov-24 02:29S 32°55' E 151°46'1 2.5
2017-Nov-24 02:00S 32°55' E 151°48'1 1.7
2017-Nov-24 01:24S 32°55' E 151°46'2 1.2
2017-Nov-23 23:51S 32°53' E 151°46'3 3.4
2017-Nov-23 23:07S 32°55' E 151°47'0 0.5
2017-Nov-23 22:50S 32°55' E 151°47'1 0.1
2017-Nov-23 17:06S 32°55' E 151°46'1 5.2
2017-Nov-23 16:55S 32°54' E 151°46'1 1.5
2017-Nov-23 16:08S 32°53' E 151°46'0 2.3
2017-Nov-23 15:59S 32°53' E 151°46'2 3.2
2017-Nov-23 15:30S 32°55' E 151°46'2 3.4
2017-Nov-23 14:59S 32°54' E 151°48'0 0.2
2017-Nov-23 14:30S 32°54' E 151°48'2 2.4
2017-Nov-23 13:47S 32°54' E 151°46'1 2.0
2017-Nov-23 13:23S 32°53' E 151°46'0 0.0
2017-Nov-23 12:58S 32°53' E 151°46'2 2.7
2017-Nov-23 12:13S 32°55' E 151°47'2 1.4
2017-Nov-23 10:33S 32°53' E 151°46'2 8.3
2017-Nov-23 10:22S 32°55' E 151°46'0 0.1
2017-Nov-23 06:18S 32°55' E 151°46'0 0.0
2017-Nov-23 05:59S 32°55' E 151°46'2 1.5
2017-Nov-23 04:35S 32°53' E 151°46'1 3.1
2017-Nov-23 04:12S 32°54' E 151°46'1 4.8
2017-Nov-23 04:00S 32°55' E 151°47'1 2.1
2017-Nov-23 03:26S 32°55' E 151°48'1 3.5
2017-Nov-23 03:00S 32°55' E 151°46'0 0.1
2017-Nov-23 02:30S 32°55' E 151°46'0 0.0
2017-Nov-23 01:53S 32°55' E 151°46'0 0.0
2017-Nov-23 01:27S 32°55' E 151°46'0 0.0
2017-Nov-23 01:00S 32°55' E 151°46'0 0.0
2017-Nov-23 00:29S 32°55' E 151°46'0 0.0
2017-Nov-23 00:00S 32°55' E 151°46'0 0.0
2017-Nov-22 23:30S 32°55' E 151°46'0 0.0
2017-Nov-22 23:00S 32°55' E 151°46'0 0.0
2017-Nov-22 22:29S 32°55' E 151°46'0 0.0
2017-Nov-22 22:00S 32°55' E 151°46'0 0.0
2017-Nov-22 21:29S 32°55' E 151°46'0 0.0
2017-Nov-22 21:00S 32°55' E 151°46'0 0.0
2017-Nov-22 20:30S 32°55' E 151°46'0 0.0
2017-Nov-22 20:00S 32°55' E 151°46'0 0.0
2017-Nov-22 19:30S 32°55' E 151°46'  
2017-Nov-20 00:27S 32°55' E 151°47'0 0.2
2017-Nov-19 22:55S 32°55' E 151°46'0 0.8
2017-Nov-19 22:23S 32°55' E 151°46'2 1.3
2017-Nov-19 21:14S 32°53' E 151°46'2 8.9
2017-Nov-19 21:01S 32°55' E 151°47'0 0.0
2017-Nov-19 14:52S 32°55' E 151°46'2 3.9
2017-Nov-19 14:23S 32°53' E 151°46'1 3.4
2017-Nov-19 14:00S 32°55' E 151°46'1 1.5
2017-Nov-19 13:19S 32°55' E 151°47'0 0.4
2017-Nov-19 13:00S 32°55' E 151°47'1 2.0
2017-Nov-19 12:28S 32°55' E 151°46'1 2.5
2017-Nov-19 12:00S 32°53' E 151°46'0 0.2
2017-Nov-19 11:29S 32°53' E 151°46'1 1.2
2017-Nov-19 10:57S 32°54' E 151°46'0 0.5
2017-Nov-19 10:11S 32°54' E 151°46'1 0.7
2017-Nov-19 08:42S 32°53' E 151°46'2 6.3
2017-Nov-19 08:22S 32°55' E 151°47'1 1.5
2017-Nov-19 07:57S 32°55' E 151°46'1 1.5
2017-Nov-19 07:03S 32°54' E 151°46'2 8.3
2017-Nov-19 06:52S 32°55' E 151°47'0 0.2
2017-Nov-19 05:42S 32°55' E 151°46'0 0.0
2017-Nov-19 01:08S 32°55' E 151°46'0 0.0
2017-Nov-19 00:11S 32°55' E 151°46'2 1.8
2017-Nov-18 23:16S 32°54' E 151°46'2 3.4
2017-Nov-18 22:48S 32°55' E 151°47'2 6.5
2017-Nov-18 22:30S 32°55' E 151°49'2 2.7
2017-Nov-18 21:55S 32°55' E 151°47'2 2.7
2017-Nov-18 21:03S 32°53' E 151°46'0 0.9
2017-Nov-18 20:41S 32°54' E 151°46'2 9.3
2017-Nov-18 20:30S 32°55' E 151°47'0 0.4
2017-Nov-18 19:58S 32°55' E 151°46'0 0.0
2017-Nov-18 19:30S 32°55' E 151°46'0 0.0
2017-Nov-18 12:11S 32°55' E 151°46'1 5.3
2017-Nov-18 12:00S 32°54' E 151°46'1 1.6
2017-Nov-18 11:22S 32°53' E 151°46'1 2.1
2017-Nov-18 11:00S 32°54' E 151°46'1 2.9
2017-Nov-18 10:30S 32°55' E 151°48'0 0.2
2017-Nov-18 09:58S 32°55' E 151°48'3 1.6
2017-Nov-18 08:23S 32°53' E 151°46'2 5.6
2017-Nov-18 07:58S 32°55' E 151°46'0 0.0
2017-Nov-18 02:17S 32°55' E 151°46'2 1.4
2017-Nov-18 00:58S 32°53' E 151°46'2 4.2
2017-Nov-18 00:30S 32°55' E 151°47'2 3.0
2017-Nov-17 23:58S 32°54' E 151°48'1 1.6
2017-Nov-17 23:29S 32°55' E 151°48'2 1.7
2017-Nov-17 22:06S 32°53' E 151°46'0 0.1
2017-Nov-17 20:39S 32°54' E 151°46'0 1.4
2017-Nov-17 20:21S 32°53' E 151°46'0 0.4
2017-Nov-17 20:00S 32°54' E 151°46'2 3.8
2017-Nov-17 19:30S 32°55' E 151°47'0 0.0
2017-Nov-17 11:12S 32°55' E 151°47'1 6.1
2017-Nov-17 11:00S 32°54' E 151°46'0 0.3
2017-Nov-17 10:30S 32°54' E 151°46'1 1.4
2017-Nov-17 09:52S 32°55' E 151°47'2 0.7
2017-Nov-17 07:42S 32°54' E 151°46'2 3.4
2017-Nov-17 07:14S 32°55' E 151°47'2 6.2
2017-Nov-17 07:00S 32°55' E 151°48'2 1.2
2017-Nov-17 05:33S 32°55' E 151°46'1 0.5
2017-Nov-17 04:13S 32°55' E 151°46'1 5.0
2017-Nov-17 04:00S 32°55' E 151°48'1 0.8
2017-Nov-17 02:39S 32°55' E 151°46'2 2.2
2017-Nov-17 01:45S 32°53' E 151°46'2 3.0
2017-Nov-17 01:12S 32°55' E 151°47'1 6.1
2017-Nov-17 01:00S 32°55' E 151°48'1 2.9
2017-Nov-17 00:29S 32°55' E 151°46'0 0.1
2017-Nov-17 00:00S 32°55' E 151°46'2 1.6
2017-Nov-16 22:59S 32°54' E 151°46'2 3.7
2017-Nov-16 22:29S 32°55' E 151°47'2 1.0
2017-Nov-16 20:23S 32°53' E 151°46'2 5.7
2017-Nov-16 20:00S 32°55' E 151°48'1 2.6
2017-Nov-16 19:30S 32°54' E 151°46'1 0.8
2017-Nov-16 18:34S 32°54' E 151°46'2 0.3
2017-Nov-16 13:41S 32°55' E 151°46'1 4.9
2017-Nov-16 13:28S 32°54' E 151°46'1 1.1
2017-Nov-16 12:49S 32°54' E 151°46'2 3.8
2017-Nov-16 12:20S 32°55' E 151°47'1 4.1
2017-Nov-16 12:00S 32°55' E 151°48'2 3.5
2017-Nov-16 11:28S 32°55' E 151°46'0 0.1
2017-Nov-16 09:01S 32°55' E 151°46'0 0.0
2017-Nov-16 08:48S 32°55' E 151°46'0 0.0
2017-Nov-16 08:30S 32°55' E 151°46'0 0.0
2017-Nov-16 07:54S 32°55' E 151°46'0 0.0
2017-Nov-16 05:30S 32°55' E 151°46'0 0.1
2017-Nov-16 03:05S 32°55' E 151°46'2 0.7
2017-Nov-16 00:37S 32°54' E 151°46'0 3.9
2017-Nov-16 00:30S 32°54' E 151°46'2 4.2
2017-Nov-15 23:59S 32°55' E 151°49'0 0.4
2017-Nov-15 23:29S 32°54' E 151°49'2 1.7
2017-Nov-15 22:07S 32°54' E 151°46'0 3.5
2017-Nov-15 22:00S 32°54' E 151°46'2 3.8
2017-Nov-15 21:30S 32°55' E 151°48'0 0.3
2017-Nov-15 20:57S 32°54' E 151°48'2 2.7
2017-Nov-15 20:21S 32°55' E 151°46'1 2.9
2017-Nov-15 19:54S 32°53' E 151°46'0 0.3
2017-Nov-15 19:17S 32°53' E 151°46'2 5.2
2017-Nov-15 18:58S 32°55' E 151°46'0 0.4
2017-Nov-15 17:55S 32°55' E 151°46'1 1.2
2017-Nov-15 17:11S 32°54' E 151°46'1 0.8
2017-Nov-15 16:02S 32°53' E 151°46'2 7.5
2017-Nov-15 15:46S 32°55' E 151°47'0 0.2
2017-Nov-15 13:28S 32°55' E 151°46'1 1.7
2017-Nov-15 12:42S 32°54' E 151°46'1 2.6
2017-Nov-15 12:30S 32°53' E 151°46'2 2.9
2017-Nov-15 11:48S 32°55' E 151°47'0 0.1
2017-Nov-15 04:58S 32°55' E 151°46'2 1.7
2017-Nov-15 03:52S 32°53' E 151°46'2 4.4
2017-Nov-15 03:26S 32°55' E 151°47'2 4.2
2017-Nov-15 02:59S 32°55' E 151°49'2 3.6
2017-Nov-15 02:23S 32°55' E 151°46'0 0.0
2017-Nov-15 01:54S 32°55' E 151°46'0 0.0
2017-Nov-15 01:29S 32°55' E 151°46'0 0.0
2017-Nov-15 01:00S 32°55' E 151°46'0 0.0
2017-Nov-14 22:22S 32°55' E 151°46'1 1.5
2017-Nov-14 21:57S 32°55' E 151°47'2 3.0
2017-Nov-14 21:13S 32°53' E 151°46'0 0.0
2017-Nov-14 20:58S 32°53' E 151°46'0 0.5
2017-Nov-14 20:30S 32°54' E 151°46'0 0.3
2017-Nov-14 19:58S 32°53' E 151°46'2 4.0
2017-Nov-14 19:30S 32°55' E 151°47'2 3.4
2017-Nov-14 18:59S 32°55' E 151°49'2 3.6
2017-Nov-14 18:28S 32°55' E 151°46'0 0.8
2017-Nov-14 17:59S 32°55' E 151°47'2 3.2
2017-Nov-14 17:30S 32°54' E 151°46'1 1.7
2017-Nov-14 17:00S 32°53' E 151°46'0 0.7
2017-Nov-14 16:30S 32°53' E 151°46'0 0.0
2017-Nov-14 16:00S 32°53' E 151°46'0 0.0
2017-Nov-14 15:30S 32°53' E 151°46'0 0.0
2017-Nov-14 15:00S 32°53' E 151°46'0 0.0
2017-Nov-14 14:30S 32°53' E 151°46'0 0.0
2017-Nov-14 14:00S 32°53' E 151°46'0 0.0
2017-Nov-14 13:30S 32°53' E 151°46'1 0.9
2017-Nov-14 12:55S 32°54' E 151°46'2 3.8
2017-Nov-14 12:29S 32°55' E 151°47'0 1.0
2017-Nov-14 12:00S 32°55' E 151°47'0 0.1
2017-Nov-14 09:55S 32°55' E 151°46'  

Dump ship's entire track history